sensor_id;sensor_type;location;lat;lon;timestamp;pressure;altitude;pressure_sealevel;temperature;humidity
79129;BME280;68529;43.286;23.360;2023-08-20T00:01:04;99357.03;;;23.22;57.17
79129;BME280;68529;43.286;23.360;2023-08-20T00:03:30;99353.38;;;23.23;57.00
79129;BME280;68529;43.286;23.360;2023-08-20T00:05:56;99348.84;;;23.23;57.03
79129;BME280;68529;43.286;23.360;2023-08-20T00:08:21;99344.59;;;23.20;57.03
79129;BME280;68529;43.286;23.360;2023-08-20T00:10:47;99342.94;;;23.19;57.05
79129;BME280;68529;43.286;23.360;2023-08-20T00:13:12;99342.94;;;23.19;56.94
79129;BME280;68529;43.286;23.360;2023-08-20T00:15:38;99343.91;;;23.18;57.25
79129;BME280;68529;43.286;23.360;2023-08-20T00:18:04;99341.91;;;23.20;56.90
79129;BME280;68529;43.286;23.360;2023-08-20T00:20:30;99342.66;;;23.23;57.04
79129;BME280;68529;43.286;23.360;2023-08-20T00:22:55;99341.56;;;23.25;57.04
79129;BME280;68529;43.286;23.360;2023-08-20T00:25:21;99351.28;;;23.26;56.83
79129;BME280;68529;43.286;23.360;2023-08-20T00:27:46;99347.75;;;23.26;57.10
79129;BME280;68529;43.286;23.360;2023-08-20T00:30:12;99346.66;;;23.28;57.25
79129;BME280;68529;43.286;23.360;2023-08-20T00:32:37;99346.09;;;23.34;56.72
79129;BME280;68529;43.286;23.360;2023-08-20T00:35:03;99347.69;;;23.37;56.79
79129;BME280;68529;43.286;23.360;2023-08-20T00:37:30;99349.53;;;23.36;56.93
79129;BME280;68529;43.286;23.360;2023-08-20T00:39:56;99349.53;;;23.36;56.73
79129;BME280;68529;43.286;23.360;2023-08-20T00:42:22;99349.41;;;23.38;56.74
79129;BME280;68529;43.286;23.360;2023-08-20T00:44:50;99342.22;;;23.38;56.80
79129;BME280;68529;43.286;23.360;2023-08-20T00:47:16;99349.31;;;23.39;56.78
79129;BME280;68529;43.286;23.360;2023-08-20T00:49:41;99350.13;;;23.40;56.63
79129;BME280;68529;43.286;23.360;2023-08-20T00:52:10;99356.50;;;23.39;56.54
79129;BME280;68529;43.286;23.360;2023-08-20T00:54:39;99355.47;;;23.19;56.77
79129;BME280;68529;43.286;23.360;2023-08-20T00:57:06;99362.31;;;23.12;57.08
79129;BME280;68529;43.286;23.360;2023-08-20T00:59:32;99361.47;;;23.11;57.14
79129;BME280;68529;43.286;23.360;2023-08-20T01:01:58;99364.88;;;23.13;57.13
79129;BME280;68529;43.286;23.360;2023-08-20T01:04:24;99361.19;;;23.14;57.01
79129;BME280;68529;43.286;23.360;2023-08-20T01:11:51;99365.47;;;23.17;56.89
79129;BME280;68529;43.286;23.360;2023-08-20T01:14:17;99365.47;;;23.17;57.05
79129;BME280;68529;43.286;23.360;2023-08-20T01:16:44;99359.38;;;23.15;57.25
79129;BME280;68529;43.286;23.360;2023-08-20T01:19:16;99353.56;;;23.10;57.33
79129;BME280;68529;43.286;23.360;2023-08-20T01:25:13;99352.53;;;22.90;57.33
79129;BME280;68529;43.286;23.360;2023-08-20T01:28:05;99343.53;;;22.91;57.61
79129;BME280;68529;43.286;23.360;2023-08-20T01:30:34;99351.31;;;22.94;57.65
79129;BME280;68529;43.286;23.360;2023-08-20T01:32:59;99356.69;;;22.94;57.71
79129;BME280;68529;43.286;23.360;2023-08-20T01:35:25;99364.09;;;22.91;57.87
79129;BME280;68529;43.286;23.360;2023-08-20T01:37:51;99360.19;;;22.95;57.95
79129;BME280;68529;43.286;23.360;2023-08-20T01:40:17;99354.56;;;22.98;57.65
79129;BME280;68529;43.286;23.360;2023-08-20T01:42:42;99346.69;;;22.96;57.79
79129;BME280;68529;43.286;23.360;2023-08-20T01:45:08;99340.47;;;22.96;57.96
79129;BME280;68529;43.286;23.360;2023-08-20T01:47:34;99334.25;;;22.95;57.88
79129;BME280;68529;43.286;23.360;2023-08-20T01:49:59;99338.03;;;22.93;57.65
79129;BME280;68529;43.286;23.360;2023-08-20T01:52:25;99334.50;;;22.92;57.90
79129;BME280;68529;43.286;23.360;2023-08-20T01:54:51;99342.53;;;22.92;57.62
79129;BME280;68529;43.286;23.360;2023-08-20T01:57:16;99345.75;;;22.86;57.96
79129;BME280;68529;43.286;23.360;2023-08-20T01:59:42;99342.56;;;22.81;57.93
79129;BME280;68529;43.286;23.360;2023-08-20T02:02:08;99342.97;;;22.77;57.98
79129;BME280;68529;43.286;23.360;2023-08-20T02:04:33;99341.41;;;22.74;58.02
79129;BME280;68529;43.286;23.360;2023-08-20T02:06:59;99333.47;;;22.73;58.27
79129;BME280;68529;43.286;23.360;2023-08-20T02:09:24;99331.44;;;22.65;58.28
79129;BME280;68529;43.286;23.360;2023-08-20T02:11:50;99334.47;;;22.60;58.36
79129;BME280;68529;43.286;23.360;2023-08-20T02:14:16;99338.97;;;22.60;58.30
79129;BME280;68529;43.286;23.360;2023-08-20T02:16:41;99333.63;;;22.60;57.98
79129;BME280;68529;43.286;23.360;2023-08-20T02:19:07;99337.25;;;22.59;58.16
79129;BME280;68529;43.286;23.360;2023-08-20T02:21:32;99340.19;;;22.56;58.50
79129;BME280;68529;43.286;23.360;2023-08-20T02:23:58;99339.22;;;22.57;58.27
79129;BME280;68529;43.286;23.360;2023-08-20T02:26:23;99341.91;;;22.57;58.61
79129;BME280;68529;43.286;23.360;2023-08-20T02:28:49;99342.16;;;22.54;58.36
79129;BME280;68529;43.286;23.360;2023-08-20T02:31:14;99343.41;;;22.50;58.63
79129;BME280;68529;43.286;23.360;2023-08-20T02:33:40;99341.69;;;22.49;58.65
79129;BME280;68529;43.286;23.360;2023-08-20T02:36:05;99344.59;;;22.46;58.62
79129;BME280;68529;43.286;23.360;2023-08-20T02:38:30;99340.09;;;22.46;58.76
79129;BME280;68529;43.286;23.360;2023-08-20T02:40:56;99345.56;;;22.45;58.82
79129;BME280;68529;43.286;23.360;2023-08-20T02:43:21;99350.81;;;22.46;58.90
79129;BME280;68529;43.286;23.360;2023-08-20T02:45:47;99342.53;;;22.49;58.79
79129;BME280;68529;43.286;23.360;2023-08-20T02:48:14;99352.00;;;22.53;58.88
79129;BME280;68529;43.286;23.360;2023-08-20T02:50:40;99354.69;;;22.53;58.58
79129;BME280;68529;43.286;23.360;2023-08-20T02:53:06;99350.91;;;22.56;58.60
79129;BME280;68529;43.286;23.360;2023-08-20T02:55:32;99350.06;;;22.55;58.41
79129;BME280;68529;43.286;23.360;2023-08-20T02:57:58;99352.75;;;22.55;58.52
79129;BME280;68529;43.286;23.360;2023-08-20T03:00:24;99360.03;;;22.53;58.42
79129;BME280;68529;43.286;23.360;2023-08-20T03:02:49;99355.78;;;22.51;58.58
79129;BME280;68529;43.286;23.360;2023-08-20T03:05:14;99353.25;;;22.49;58.70
79129;BME280;68529;43.286;23.360;2023-08-20T03:07:40;99356.88;;;22.48;58.34
79129;BME280;68529;43.286;23.360;2023-08-20T03:10:06;99351.66;;;22.47;58.78
79129;BME280;68529;43.286;23.360;2023-08-20T03:12:31;99350.81;;;22.46;58.75
79129;BME280;68529;43.286;23.360;2023-08-20T03:14:58;99353.59;;;22.45;58.67
79129;BME280;68529;43.286;23.360;2023-08-20T03:17:24;99345.56;;;22.45;58.82
79129;BME280;68529;43.286;23.360;2023-08-20T03:19:57;99352.88;;;22.43;58.89
79129;BME280;68529;43.286;23.360;2023-08-20T03:22:23;99347.66;;;22.41;58.73
79129;BME280;68529;43.286;23.360;2023-08-20T03:24:49;99357.03;;;22.36;58.84
79129;BME280;68529;43.286;23.360;2023-08-20T03:27:15;99351.47;;;22.28;58.85
79129;BME280;68529;43.286;23.360;2023-08-20T03:29:41;99356.91;;;22.26;59.25
79129;BME280;68529;43.286;23.360;2023-08-20T03:32:06;99349.03;;;22.25;59.29
79129;BME280;68529;43.286;23.360;2023-08-20T03:34:32;99351.09;;;22.21;59.27
79129;BME280;68529;43.286;23.360;2023-08-20T03:36:57;99355.72;;;22.19;59.47
79129;BME280;68529;43.286;23.360;2023-08-20T03:39:22;99357.31;;;22.22;59.23
79129;BME280;68529;43.286;23.360;2023-08-20T03:41:50;99356.94;;;22.04;59.55
79129;BME280;68529;43.286;23.360;2023-08-20T03:44:15;99354.97;;;22.06;59.80
79129;BME280;68529;43.286;23.360;2023-08-20T03:46:41;99353.31;;;22.05;59.79
79129;BME280;68529;43.286;23.360;2023-08-20T03:49:06;99356.22;;;22.02;60.20
79129;BME280;68529;43.286;23.360;2023-08-20T03:51:31;99353.66;;;22.00;60.29
79129;BME280;68529;43.286;23.360;2023-08-20T03:53:57;99360.72;;;22.01;60.35
79129;BME280;68529;43.286;23.360;2023-08-20T03:56:22;99353.78;;;21.88;60.49
79129;BME280;68529;43.286;23.360;2023-08-20T03:58:47;99351.41;;;21.72;60.83
79129;BME280;68529;43.286;23.360;2023-08-20T04:01:13;99358.69;;;21.70;60.90
79129;BME280;68529;43.286;23.360;2023-08-20T04:03:38;99356.28;;;21.78;61.05
79129;BME280;68529;43.286;23.360;2023-08-20T04:06:04;99359.06;;;21.66;61.26
79129;BME280;68529;43.286;23.360;2023-08-20T04:08:29;99359.69;;;21.80;61.26
79129;BME280;68529;43.286;23.360;2023-08-20T04:10:54;99357.91;;;21.92;60.63
79129;BME280;68529;43.286;23.360;2023-08-20T04:13:20;99363.38;;;22.01;60.47
79129;BME280;68529;43.286;23.360;2023-08-20T04:15:45;99359.00;;;22.12;60.38
79129;BME280;68529;43.286;23.360;2023-08-20T04:18:11;99360.22;;;22.19;60.51
79129;BME280;68529;43.286;23.360;2023-08-20T04:20:36;99369.44;;;22.26;60.20
79129;BME280;68529;43.286;23.360;2023-08-20T04:23:02;99368.00;;;22.33;60.41
79129;BME280;68529;43.286;23.360;2023-08-20T04:25:27;99369.19;;;22.40;60.31
79129;BME280;68529;43.286;23.360;2023-08-20T04:27:53;99371.13;;;22.49;59.65
79129;BME280;68529;43.286;23.360;2023-08-20T04:30:18;99368.69;;;22.57;59.98
79129;BME280;68529;43.286;23.360;2023-08-20T04:32:44;99379.78;;;22.64;59.91
79129;BME280;68529;43.286;23.360;2023-08-20T04:35:09;99378.53;;;22.68;59.54
79129;BME280;68529;43.286;23.360;2023-08-20T04:37:35;99379.00;;;22.73;59.41
79129;BME280;68529;43.286;23.360;2023-08-20T04:40:01;99377.66;;;22.78;59.39
79129;BME280;68529;43.286;23.360;2023-08-20T04:42:29;99372.03;;;22.81;59.06
79129;BME280;68529;43.286;23.360;2023-08-20T04:44:55;99380.81;;;22.83;59.20
79129;BME280;68529;43.286;23.360;2023-08-20T04:47:20;99386.91;;;22.85;58.92
79129;BME280;68529;43.286;23.360;2023-08-20T04:49:45;99384.81;;;22.89;58.99
79129;BME280;68529;43.286;23.360;2023-08-20T04:52:11;99386.41;;;22.91;58.79
79129;BME280;68529;43.286;23.360;2023-08-20T04:54:36;99386.41;;;22.91;58.97
79129;BME280;68529;43.286;23.360;2023-08-20T04:57:02;99393.44;;;22.92;59.10
79129;BME280;68529;43.286;23.360;2023-08-20T04:59:27;99396.88;;;22.94;59.04
79129;BME280;68529;43.286;23.360;2023-08-20T05:01:53;99399.53;;;22.94;58.93
79129;BME280;68529;43.286;23.360;2023-08-20T05:04:18;99398.06;;;22.90;59.15
79129;BME280;68529;43.286;23.360;2023-08-20T05:06:43;99396.97;;;22.93;59.03
79129;BME280;68529;43.286;23.360;2023-08-20T05:09:09;99396.72;;;22.96;59.17
79129;BME280;68529;43.286;23.360;2023-08-20T05:11:34;99401.69;;;23.00;58.98
79129;BME280;68529;43.286;23.360;2023-08-20T05:14:00;99404.13;;;23.03;58.93
79129;BME280;68529;43.286;23.360;2023-08-20T05:16:25;99408.03;;;22.99;59.22
79129;BME280;68529;43.286;23.360;2023-08-20T05:18:51;99409.88;;;22.99;59.30
79129;BME280;68529;43.286;23.360;2023-08-20T05:21:16;99410.00;;;22.97;59.06
79129;BME280;68529;43.286;23.360;2023-08-20T05:23:41;99425.56;;;23.03;59.27
79129;BME280;68529;43.286;23.360;2023-08-20T05:26:07;99425.19;;;23.08;59.14
79129;BME280;68529;43.286;23.360;2023-08-20T05:28:33;99420.44;;;23.00;59.04
79129;BME280;68529;43.286;23.360;2023-08-20T05:30:59;99423.41;;;22.97;59.42
79129;BME280;68529;43.286;23.360;2023-08-20T05:33:24;99424.59;;;23.04;59.21
79129;BME280;68529;43.286;23.360;2023-08-20T05:35:50;99435.69;;;23.00;59.30
79129;BME280;68529;43.286;23.360;2023-08-20T05:38:16;99442.56;;;23.25;59.10
79129;BME280;68529;43.286;23.360;2023-08-20T05:40:42;99449.47;;;23.38;59.20
79129;BME280;68529;43.286;23.360;2023-08-20T05:43:07;99448.31;;;23.52;58.67
79129;BME280;68529;43.286;23.360;2023-08-20T05:45:33;99448.91;;;23.76;58.10
79129;BME280;68529;43.286;23.360;2023-08-20T05:47:58;99446.38;;;23.95;57.66
79129;BME280;68529;43.286;23.360;2023-08-20T05:50:24;99448.97;;;24.06;57.59
79129;BME280;68529;43.286;23.360;2023-08-20T05:52:49;99449.19;;;24.14;56.85
79129;BME280;68529;43.286;23.360;2023-08-20T05:55:15;99457.09;;;24.16;56.36
79129;BME280;68529;43.286;23.360;2023-08-20T05:57:41;99457.88;;;24.27;56.49
79129;BME280;68529;43.286;23.360;2023-08-20T06:00:08;99454.84;;;24.42;56.11
79129;BME280;68529;43.286;23.360;2023-08-20T06:02:34;99458.28;;;24.63;56.00
79129;BME280;68529;43.286;23.360;2023-08-20T06:04:59;99453.16;;;24.80;55.41
79129;BME280;68529;43.286;23.360;2023-08-20T06:07:25;99455.47;;;24.95;55.49
79129;BME280;68529;43.286;23.360;2023-08-20T06:09:50;99453.66;;;25.14;55.66
79129;BME280;68529;43.286;23.360;2023-08-20T06:12:16;99446.03;;;25.19;54.68
79129;BME280;68529;43.286;23.360;2023-08-20T06:14:42;99456.66;;;25.21;55.38
79129;BME280;68529;43.286;23.360;2023-08-20T06:17:07;99453.81;;;25.22;55.08
79129;BME280;68529;43.286;23.360;2023-08-20T06:19:33;99458.34;;;25.31;54.50
79129;BME280;68529;43.286;23.360;2023-08-20T06:21:59;99469.84;;;25.53;55.05
79129;BME280;68529;43.286;23.360;2023-08-20T06:24:24;99456.38;;;25.72;54.53
79129;BME280;68529;43.286;23.360;2023-08-20T06:26:51;99465.16;;;25.93;54.35
79129;BME280;68529;43.286;23.360;2023-08-20T06:29:16;99463.97;;;26.05;53.86
79129;BME280;68529;43.286;23.360;2023-08-20T06:31:42;99465.09;;;26.22;54.35
79129;BME280;68529;43.286;23.360;2023-08-20T06:34:07;99465.09;;;26.31;54.01
79129;BME280;68529;43.286;23.360;2023-08-20T06:36:33;99463.19;;;26.41;52.41
79129;BME280;68529;43.286;23.360;2023-08-20T06:38:58;99470.56;;;26.49;52.36
79129;BME280;68529;43.286;23.360;2023-08-20T06:41:23;99466.31;;;26.46;52.69
79129;BME280;68529;43.286;23.360;2023-08-20T06:43:49;99466.91;;;26.40;52.55
79129;BME280;68529;43.286;23.360;2023-08-20T06:46:14;99472.06;;;26.61;53.81
79129;BME280;68529;43.286;23.360;2023-08-20T06:48:40;99471.97;;;26.80;51.46
79129;BME280;68529;43.286;23.360;2023-08-20T06:51:15;99477.59;;;26.96;52.21
79129;BME280;68529;43.286;23.360;2023-08-20T06:53:41;99478.63;;;27.13;51.60
79129;BME280;68529;43.286;23.360;2023-08-20T06:56:10;99475.72;;;27.24;52.18
79129;BME280;68529;43.286;23.360;2023-08-20T06:58:37;99485.72;;;27.41;51.67
79129;BME280;68529;43.286;23.360;2023-08-20T07:01:03;99482.13;;;27.58;49.37
79129;BME280;68529;43.286;23.360;2023-08-20T07:03:39;99484.22;;;27.64;48.97
79129;BME280;68529;43.286;23.360;2023-08-20T07:06:05;99483.31;;;27.73;49.67
79129;BME280;68529;43.286;23.360;2023-08-20T07:08:30;99480.97;;;27.79;48.18
79129;BME280;68529;43.286;23.360;2023-08-20T07:10:56;99480.03;;;27.88;47.43
79129;BME280;68529;43.286;23.360;2023-08-20T07:13:22;99485.75;;;28.02;49.17
79129;BME280;68529;43.286;23.360;2023-08-20T07:15:48;99482.00;;;28.21;47.77
79129;BME280;68529;43.286;23.360;2023-08-20T07:18:13;99480.53;;;28.26;47.52
79129;BME280;68529;43.286;23.360;2023-08-20T07:20:41;99481.22;;;28.28;47.35
79129;BME280;68529;43.286;23.360;2023-08-20T07:23:07;99477.56;;;28.38;46.00
79129;BME280;68529;43.286;23.360;2023-08-20T07:25:32;99481.13;;;28.38;45.62
79129;BME280;68529;43.286;23.360;2023-08-20T07:27:58;99479.25;;;28.39;47.17
79129;BME280;68529;43.286;23.360;2023-08-20T07:30:27;99486.97;;;28.59;47.23
79129;BME280;68529;43.286;23.360;2023-08-20T07:32:52;99476.75;;;28.71;46.51
79129;BME280;68529;43.286;23.360;2023-08-20T07:35:18;99475.13;;;28.86;45.61
79129;BME280;68529;43.286;23.360;2023-08-20T07:37:43;99475.00;;;28.96;46.85
79129;BME280;68529;43.286;23.360;2023-08-20T07:40:09;99473.31;;;28.95;45.14
79129;BME280;68529;43.286;23.360;2023-08-20T07:42:36;99470.78;;;29.01;44.80
79129;BME280;68529;43.286;23.360;2023-08-20T07:45:02;99476.38;;;29.08;45.38
79129;BME280;68529;43.286;23.360;2023-08-20T07:47:27;99474.03;;;29.13;44.44
79129;BME280;68529;43.286;23.360;2023-08-20T07:49:54;99477.09;;;29.18;43.94
79129;BME280;68529;43.286;23.360;2023-08-20T07:52:20;99477.50;;;29.23;44.63
79129;BME280;68529;43.286;23.360;2023-08-20T07:54:45;99476.47;;;29.24;44.57
79129;BME280;68529;43.286;23.360;2023-08-20T07:57:11;99476.31;;;29.25;45.25
79129;BME280;68529;43.286;23.360;2023-08-20T07:59:37;99479.91;;;29.42;44.96
79129;BME280;68529;43.286;23.360;2023-08-20T08:02:03;99472.25;;;29.45;44.03
79129;BME280;68529;43.286;23.360;2023-08-20T08:04:28;99469.75;;;29.52;43.61
79129;BME280;68529;43.286;23.360;2023-08-20T08:06:53;99466.38;;;29.58;43.98
79129;BME280;68529;43.286;23.360;2023-08-20T08:09:30;99470.78;;;29.75;43.58
79129;BME280;68529;43.286;23.360;2023-08-20T08:11:56;99469.63;;;29.86;42.87
79129;BME280;68529;43.286;23.360;2023-08-20T08:14:23;99467.44;;;29.97;43.03
79129;BME280;68529;43.286;23.360;2023-08-20T08:16:49;99463.69;;;30.15;42.79
79129;BME280;68529;43.286;23.360;2023-08-20T08:19:15;99469.25;;;30.21;42.60
79129;BME280;68529;43.286;23.360;2023-08-20T08:21:42;99465.16;;;30.33;41.73
79129;BME280;68529;43.286;23.360;2023-08-20T08:24:08;99460.75;;;30.40;40.95
79129;BME280;68529;43.286;23.360;2023-08-20T08:26:34;99458.72;;;30.50;42.02
79129;BME280;68529;43.286;23.360;2023-08-20T08:29:00;99464.97;;;30.59;40.62
79129;BME280;68529;43.286;23.360;2023-08-20T08:31:26;99457.63;;;30.68;40.92
79129;BME280;68529;43.286;23.360;2023-08-20T08:33:51;99459.19;;;30.62;38.97
79129;BME280;68529;43.286;23.360;2023-08-20T08:36:17;99461.56;;;30.57;39.60
79129;BME280;68529;43.286;23.360;2023-08-20T08:38:43;99455.97;;;30.58;39.93
79129;BME280;68529;43.286;23.360;2023-08-20T08:41:11;99453.03;;;30.76;40.05
79129;BME280;68529;43.286;23.360;2023-08-20T08:43:40;99459.59;;;30.90;39.59
79129;BME280;68529;43.286;23.360;2023-08-20T08:46:07;99461.75;;;31.02;38.48
79129;BME280;68529;43.286;23.360;2023-08-20T08:48:36;99452.00;;;31.16;39.41
79129;BME280;68529;43.286;23.360;2023-08-20T08:51:02;99462.78;;;31.32;37.99
79129;BME280;68529;43.286;23.360;2023-08-20T08:53:28;99460.22;;;31.31;38.04
79129;BME280;68529;43.286;23.360;2023-08-20T08:55:55;99461.66;;;31.41;38.04
79129;BME280;68529;43.286;23.360;2023-08-20T08:58:20;99459.53;;;31.59;38.49
79129;BME280;68529;43.286;23.360;2023-08-20T09:00:45;99457.91;;;31.73;37.60
79129;BME280;68529;43.286;23.360;2023-08-20T09:03:11;99460.38;;;31.83;38.11
79129;BME280;68529;43.286;23.360;2023-08-20T09:05:56;99456.00;;;31.96;37.52
79129;BME280;68529;43.286;23.360;2023-08-20T09:08:29;99459.91;;;32.02;37.10
79129;BME280;68529;43.286;23.360;2023-08-20T09:10:57;99455.41;;;32.09;36.55
79129;BME280;68529;43.286;23.360;2023-08-20T09:13:39;99443.50;;;32.10;37.77
79129;BME280;68529;43.286;23.360;2023-08-20T09:16:08;99441.34;;;32.20;36.88
79129;BME280;68529;43.286;23.360;2023-08-20T09:18:40;99446.69;;;32.13;37.04
79129;BME280;68529;43.286;23.360;2023-08-20T09:21:10;99447.28;;;32.23;36.61
79129;BME280;68529;43.286;23.360;2023-08-20T09:23:36;99446.53;;;32.30;36.29
79129;BME280;68529;43.286;23.360;2023-08-20T09:26:03;99447.56;;;32.43;36.70
79129;BME280;68529;43.286;23.360;2023-08-20T09:28:29;99449.34;;;32.51;35.72
79129;BME280;68529;43.286;23.360;2023-08-20T09:31:05;99450.97;;;32.60;36.35
79129;BME280;68529;43.286;23.360;2023-08-20T09:33:30;99447.41;;;32.74;36.04
79129;BME280;68529;43.286;23.360;2023-08-20T09:35:56;99447.13;;;32.69;35.54
79129;BME280;68529;43.286;23.360;2023-08-20T09:38:24;99447.25;;;32.61;34.77
79129;BME280;68529;43.286;23.360;2023-08-20T09:40:52;99444.13;;;32.64;35.27
79129;BME280;68529;43.286;23.360;2023-08-20T09:43:18;99441.66;;;32.83;35.80
79129;BME280;68529;43.286;23.360;2023-08-20T09:45:46;99443.97;;;33.01;35.33
79129;BME280;68529;43.286;23.360;2023-08-20T09:48:13;99441.16;;;33.09;34.52
79129;BME280;68529;43.286;23.360;2023-08-20T09:50:43;99430.75;;;33.13;34.89
79129;BME280;68529;43.286;23.360;2023-08-20T09:53:27;99440.28;;;33.23;35.67
79129;BME280;68529;43.286;23.360;2023-08-20T09:56:00;99438.41;;;33.45;35.42
79129;BME280;68529;43.286;23.360;2023-08-20T09:58:30;99441.31;;;33.58;34.48
79129;BME280;68529;43.286;23.360;2023-08-20T10:00:55;99438.25;;;33.68;34.78
79129;BME280;68529;43.286;23.360;2023-08-20T10:03:22;99434.53;;;33.75;35.09
79129;BME280;68529;43.286;23.360;2023-08-20T10:05:49;99438.41;;;33.81;33.97
79129;BME280;68529;43.286;23.360;2023-08-20T10:08:15;99432.66;;;33.55;34.31
79129;BME280;68529;43.286;23.360;2023-08-20T10:10:42;99429.06;;;33.12;34.42
79129;BME280;68529;43.286;23.360;2023-08-20T10:13:07;99429.13;;;33.39;34.87
79129;BME280;68529;43.286;23.360;2023-08-20T10:15:33;99426.66;;;33.59;33.98
79129;BME280;68529;43.286;23.360;2023-08-20T10:18:01;99424.38;;;33.63;33.92
79129;BME280;68529;43.286;23.360;2023-08-20T10:20:29;99424.09;;;33.79;34.24
79129;BME280;68529;43.286;23.360;2023-08-20T10:23:00;99428.19;;;33.68;33.04
79129;BME280;68529;43.286;23.360;2023-08-20T10:25:26;99432.84;;;33.53;33.36
79129;BME280;68529;43.286;23.360;2023-08-20T10:27:52;99424.47;;;33.55;34.28
79129;BME280;68529;43.286;23.360;2023-08-20T10:30:22;99420.72;;;33.34;32.76
79129;BME280;68529;43.286;23.360;2023-08-20T10:32:55;99420.72;;;33.34;33.42
79129;BME280;68529;43.286;23.360;2023-08-20T10:35:27;99421.94;;;33.32;33.51
79129;BME280;68529;43.286;23.360;2023-08-20T10:38:07;99416.44;;;33.47;33.37
79129;BME280;68529;43.286;23.360;2023-08-20T10:40:52;99402.25;;;33.30;33.38
79129;BME280;68529;43.286;23.360;2023-08-20T10:43:38;99406.81;;;33.51;33.57
79129;BME280;68529;43.286;23.360;2023-08-20T10:46:13;99404.53;;;33.69;33.48
79129;BME280;68529;43.286;23.360;2023-08-20T10:48:40;99405.69;;;33.81;33.42
79129;BME280;68529;43.286;23.360;2023-08-20T10:51:16;99400.09;;;33.89;32.55
79129;BME280;68529;43.286;23.360;2023-08-20T10:53:48;99408.75;;;33.99;32.47
79129;BME280;68529;43.286;23.360;2023-08-20T10:56:16;99394.97;;;34.07;33.14
79129;BME280;68529;43.286;23.360;2023-08-20T10:58:44;99398.41;;;34.16;32.06
79129;BME280;68529;43.286;23.360;2023-08-20T11:01:14;99396.59;;;34.23;32.82
79129;BME280;68529;43.286;23.360;2023-08-20T11:03:44;99392.41;;;34.27;32.35
79129;BME280;68529;43.286;23.360;2023-08-20T11:06:10;99392.44;;;34.33;32.72
79129;BME280;68529;43.286;23.360;2023-08-20T11:08:37;99385.56;;;34.44;32.53
79129;BME280;68529;43.286;23.360;2023-08-20T11:11:03;99386.81;;;34.41;32.73
79129;BME280;68529;43.286;23.360;2023-08-20T11:13:32;99386.19;;;34.46;32.41
79129;BME280;68529;43.286;23.360;2023-08-20T11:15:57;99374.44;;;34.45;31.89
79129;BME280;68529;43.286;23.360;2023-08-20T11:18:24;99376.19;;;34.53;31.86
79129;BME280;68529;43.286;23.360;2023-08-20T11:20:50;99372.19;;;34.56;31.72
79129;BME280;68529;43.286;23.360;2023-08-20T11:23:15;99371.84;;;34.59;31.79
79129;BME280;68529;43.286;23.360;2023-08-20T11:25:42;99368.69;;;34.62;30.81
79129;BME280;68529;43.286;23.360;2023-08-20T11:28:08;99366.56;;;34.57;30.59
79129;BME280;68529;43.286;23.360;2023-08-20T11:30:34;99371.53;;;34.53;30.99
79129;BME280;68529;43.286;23.360;2023-08-20T11:33:00;99359.97;;;34.45;30.94
79129;BME280;68529;43.286;23.360;2023-08-20T11:35:25;99357.78;;;34.27;31.96
79129;BME280;68529;43.286;23.360;2023-08-20T11:37:54;99353.34;;;34.26;31.60
79129;BME280;68529;43.286;23.360;2023-08-20T11:40:21;99359.88;;;34.25;31.19
79129;BME280;68529;43.286;23.360;2023-08-20T11:42:47;99347.72;;;34.28;31.09
79129;BME280;68529;43.286;23.360;2023-08-20T11:45:13;99348.56;;;34.28;31.14
79129;BME280;68529;43.286;23.360;2023-08-20T11:47:40;99349.19;;;34.30;32.03
79129;BME280;68529;43.286;23.360;2023-08-20T11:50:06;99345.00;;;34.28;30.95
79129;BME280;68529;43.286;23.360;2023-08-20T11:52:36;99345.41;;;34.31;30.98
79129;BME280;68529;43.286;23.360;2023-08-20T11:55:02;99350.63;;;34.26;31.03
79129;BME280;68529;43.286;23.360;2023-08-20T11:57:31;99341.81;;;34.24;30.31
79129;BME280;68529;43.286;23.360;2023-08-20T12:00:03;99339.03;;;34.11;30.30
79129;BME280;68529;43.286;23.360;2023-08-20T12:02:40;99329.59;;;34.14;32.12
79129;BME280;68529;43.286;23.360;2023-08-20T12:05:07;99330.06;;;34.17;31.37
79129;BME280;68529;43.286;23.360;2023-08-20T12:07:32;99331.72;;;34.18;32.23
79129;BME280;68529;43.286;23.360;2023-08-20T12:09:58;99325.81;;;34.15;31.10
79129;BME280;68529;43.286;23.360;2023-08-20T12:12:23;99336.94;;;34.13;30.38
79129;BME280;68529;43.286;23.360;2023-08-20T12:14:49;99330.97;;;34.03;29.75
79129;BME280;68529;43.286;23.360;2023-08-20T12:17:19;99325.88;;;33.93;30.23
79129;BME280;68529;43.286;23.360;2023-08-20T12:19:45;99321.03;;;33.89;30.57
79129;BME280;68529;43.286;23.360;2023-08-20T12:22:10;99313.28;;;33.92;30.84
79129;BME280;68529;43.286;23.360;2023-08-20T12:24:36;99319.13;;;33.89;30.29
79129;BME280;68529;43.286;23.360;2023-08-20T12:27:02;99327.50;;;33.88;30.18
79129;BME280;68529;43.286;23.360;2023-08-20T12:29:28;99318.03;;;33.84;30.68
79129;BME280;68529;43.286;23.360;2023-08-20T12:31:54;99308.44;;;33.88;30.64
79129;BME280;68529;43.286;23.360;2023-08-20T12:34:19;99306.16;;;33.91;30.05
79129;BME280;68529;43.286;23.360;2023-08-20T12:36:47;99313.25;;;33.86;29.85
79129;BME280;68529;43.286;23.360;2023-08-20T12:39:12;99304.69;;;33.89;30.46
79129;BME280;68529;43.286;23.360;2023-08-20T12:41:38;99310.31;;;33.87;30.32
79129;BME280;68529;43.286;23.360;2023-08-20T12:44:04;99307.81;;;33.86;30.53
79129;BME280;68529;43.286;23.360;2023-08-20T12:46:30;99303.16;;;33.80;30.38
79129;BME280;68529;43.286;23.360;2023-08-20T12:48:55;99295.81;;;33.80;30.28
79129;BME280;68529;43.286;23.360;2023-08-20T12:51:21;99296.66;;;33.81;29.46
79129;BME280;68529;43.286;23.360;2023-08-20T12:53:46;99298.09;;;33.77;29.84
79129;BME280;68529;43.286;23.360;2023-08-20T12:56:12;99296.78;;;33.73;29.84